Time;durP1;ratioP1;P1;durP2;ratioP2;P2;SDS_P1;SDS_P2;PMS_P1;PMS_P2;Temp;Humidity;BMP_temperature;BMP_pressure;BME280_temperature;BME280_humidity;BME280_pressure;Samples;Min_cycle;Max_cycle;Signal;HPM_P1;HPM_P2
2022/10/26 00:02:14;;;;;;;2.10;1.77;;;;;;;;;;5030192;28;20538;-62
2022/10/26 00:04:39;;;;;;;2.13;1.90;;;;;;;;;;5030484;28;20017;-62
2022/10/26 00:07:05;;;;;;;1.98;1.77;;;;;;;;;;5029718;28;20057;-63
2022/10/26 00:09:31;;;;;;;2.67;1.83;;;;;;;;;;5030311;28;20053;-61
2022/10/26 00:11:56;;;;;;;2.40;2.20;;;;;;;;;;5030694;28;20057;-72
2022/10/26 00:14:22;;;;;;;2.28;2.08;;;;;;;;;;5030342;28;20032;-62
2022/10/26 00:16:47;;;;;;;2.55;2.00;;;;;;;;;;5032717;28;20083;-61
2022/10/26 00:19:13;;;;;;;1.80;1.70;;;;;;;;;;5031761;28;20031;-61
2022/10/26 00:21:38;;;;;;;2.28;2.08;;;;;;;;;;5032296;28;20104;-62
2022/10/26 00:24:04;;;;;;;1.77;1.67;;;;;;;;;;5032379;28;20677;-62
2022/10/26 00:26:30;;;;;;;2.28;1.83;;;;;;;;;;5031399;28;20539;-62
2022/10/26 00:28:56;;;;;;;2.55;1.90;;;;;;;;;;5032929;28;20060;-61
2022/10/26 00:31:22;;;;;;;2.05;1.88;;;;;;;;;;5032810;28;20029;-61
2022/10/26 00:33:52;;;;;;;1.85;1.75;;;;;;;;;;5032675;28;20052;-61
2022/10/26 00:36:18;;;;;;;2.17;1.90;;;;;;;;;;5032894;28;20033;-62
2022/10/26 00:38:54;;;;;;;1.90;1.70;;;;;;;;;;5032787;28;20087;-61
2022/10/26 00:41:29;;;;;;;2.58;1.58;;;;;;;;;;5032003;28;20029;-62
2022/10/26 00:43:55;;;;;;;1.83;1.70;;;;;;;;;;5032553;28;20068;-67
2022/10/26 00:46:25;;;;;;;1.98;1.77;;;;;;;;;;5032489;28;20052;-61
2022/10/26 00:49:08;;;;;;;;;;;;;;;;;;5032954;28;20017;-62
2022/10/26 00:51:41;;;;;;;1.75;1.63;;;;;;;;;;5032269;28;19956;-62
2022/10/26 00:54:17;;;;;;;1.92;1.73;;;;;;;;;;5032390;28;20033;-66
2022/10/26 00:56:44;;;;;;;1.98;1.75;;;;;;;;;;5032468;28;20026;-66
2022/10/26 00:59:11;;;;;;;1.80;1.70;;;;;;;;;;5032550;28;20072;-71
2022/10/26 01:01:41;;;;;;;1.77;1.67;;;;;;;;;;5032565;28;20472;-66
2022/10/26 01:04:06;;;;;;;1.67;1.57;;;;;;;;;;5032232;28;20033;-60
2022/10/26 01:06:34;;;;;;;1.95;1.75;;;;;;;;;;5032275;28;20025;-63
2022/10/26 01:08:59;;;;;;;1.85;1.70;;;;;;;;;;5032350;28;20029;-72
2022/10/26 01:11:25;;;;;;;1.73;1.60;;;;;;;;;;5032279;28;20532;-61
2022/10/26 01:13:53;;;;;;;2.63;1.90;;;;;;;;;;5032222;28;20029;-61
2022/10/26 01:16:43;;;;;;;1.85;1.65;;;;;;;;;;5030985;28;20053;-63
2022/10/26 01:19:26;;;;;;;;;;;;;;;;;;5032932;28;20026;-61
2022/10/26 01:22:04;;;;;;;1.88;1.77;;;;;;;;;;5032084;28;20373;-71
2022/10/26 01:25:14;;;;;;;2.92;1.90;;;;;;;;;;5032073;28;20030;-72
2022/10/26 01:27:51;;;;;;;1.73;1.60;;;;;;;;;;5030654;28;20069;-61
2022/10/26 01:30:21;;;;;;;1.80;1.42;;;;;;;;;;5032116;28;20038;-61
2022/10/26 01:33:24;;;;;;;1.73;1.60;;;;;;;;;;5032063;28;20532;-64
2022/10/26 01:36:17;;;;;;;1.80;1.70;;;;;;;;;;5035730;28;20481;-62
2022/10/26 01:38:57;;;;;;;1.80;1.52;;;;;;;;;;5035821;28;20466;-67
2022/10/26 01:41:37;;;;;;;2.00;1.80;;;;;;;;;;5035608;28;20057;-62
2022/10/26 01:44:08;;;;;;;1.83;1.73;;;;;;;;;;5035725;28;20482;-70
2022/10/26 01:46:42;;;;;;;2.28;1.90;;;;;;;;;;5035701;28;20037;-67
2022/10/26 01:49:12;;;;;;;1.83;1.55;;;;;;;;;;5035663;28;20481;-66
2022/10/26 01:51:41;;;;;;;1.90;1.80;;;;;;;;;;5035397;28;20053;-72
2022/10/26 01:54:06;;;;;;;1.65;1.55;;;;;;;;;;5035831;28;20103;-73
2022/10/26 01:56:37;;;;;;;1.80;1.70;;;;;;;;;;5035454;28;20064;-72
2022/10/26 01:59:25;;;;;;;1.90;1.80;;;;;;;;;;5035547;28;20497;-72
2022/10/26 02:02:16;;;;;;;2.08;1.80;;;;;;;;;;5035292;28;20029;-65
2022/10/26 02:04:54;;;;;;;;;;;;;;;;;;5035743;28;20025;-71
2022/10/26 02:07:48;;;;;;;1.52;1.42;;;;;;;;;;5067425;28;19943;-61
2022/10/26 02:10:28;;;;;;;1.77;1.58;;;;;;;;;;5034066;28;20094;-61
2022/10/26 02:13:14;;;;;;;1.80;1.70;;;;;;;;;;5035469;28;20021;-63
2022/10/26 02:15:57;;;;;;;1.55;1.45;;;;;;;;;;5035149;28;20026;-61
2022/10/26 02:18:46;;;;;;;1.88;1.73;;;;;;;;;;5066028;28;20026;-61
2022/10/26 02:21:18;;;;;;;2.15;1.75;;;;;;;;;;5034497;28;20029;-62
2022/10/26 02:23:46;;;;;;;1.70;1.60;;;;;;;;;;5067325;28;20060;-72
2022/10/26 02:26:16;;;;;;;3.30;1.60;;;;;;;;;;5035209;28;20128;-72
2022/10/26 02:28:47;;;;;;;1.67;1.58;;;;;;;;;;5034931;28;20030;-72
2022/10/26 02:31:14;;;;;;;1.52;1.42;;;;;;;;;;5034868;28;20128;-61
2022/10/26 02:33:45;;;;;;;1.70;1.60;;;;;;;;;;5034843;28;20104;-64
2022/10/26 02:36:15;;;;;;;1.70;1.60;;;;;;;;;;5035115;28;20029;-61
2022/10/26 02:38:42;;;;;;;2.08;1.80;;;;;;;;;;5034673;28;20075;-63
2022/10/26 02:41:11;;;;;;;1.90;1.70;;;;;;;;;;5066741;28;20494;-72
2022/10/26 02:43:43;;;;;;;1.42;1.33;;;;;;;;;;5034694;28;20620;-71
2022/10/26 02:46:14;;;;;;;2.10;1.65;;;;;;;;;;5034294;28;20034;-61
2022/10/26 02:48:40;;;;;;;1.60;1.48;;;;;;;;;;5034875;28;20473;-66
2022/10/26 02:51:16;;;;;;;2.72;1.60;;;;;;;;;;5066523;28;20028;-67
2022/10/26 02:53:52;;;;;;;1.60;1.50;;;;;;;;;;5034513;28;20021;-66
2022/10/26 02:56:24;;;;;;;2.33;1.70;;;;;;;;;;5034330;28;20072;-62
2022/10/26 02:58:56;;;;;;;1.60;1.50;;;;;;;;;;5034519;28;20024;-61
2022/10/26 03:01:21;;;;;;;2.75;1.88;;;;;;;;;;5034253;28;20053;-73
2022/10/26 03:03:47;;;;;;;1.65;1.55;;;;;;;;;;5034358;28;20053;-63
2022/10/26 03:06:20;;;;;;;1.95;1.65;;;;;;;;;;5034201;28;20033;-62
2022/10/26 03:08:46;;;;;;;1.65;1.50;;;;;;;;;;5034437;28;20033;-61
2022/10/26 03:11:11;;;;;;;1.40;1.30;;;;;;;;;;5034039;28;20496;-61
2022/10/26 03:13:37;;;;;;;1.70;1.60;;;;;;;;;;5034255;28;20071;-61
2022/10/26 03:16:02;;;;;;;2.05;1.85;;;;;;;;;;5033944;28;20377;-62
2022/10/26 03:18:28;;;;;;;1.58;1.48;;;;;;;;;;5034214;28;20036;-61
2022/10/26 03:20:53;;;;;;;2.13;1.35;;;;;;;;;;5033916;28;20108;-62
2022/10/26 03:23:19;;;;;;;2.13;1.92;;;;;;;;;;5034104;28;20028;-63
2022/10/26 03:25:44;;;;;;;1.95;1.70;;;;;;;;;;5033809;28;20032;-62
2022/10/26 03:28:10;;;;;;;1.58;1.48;;;;;;;;;;5033866;28;20034;-60
2022/10/26 03:30:35;;;;;;;2.63;1.85;;;;;;;;;;5033786;28;20385;-64
2022/10/26 03:33:00;;;;;;;1.60;1.40;;;;;;;;;;5015891;28;20062;-63
2022/10/26 03:35:26;;;;;;;1.65;1.55;;;;;;;;;;5033901;28;20025;-60
2022/10/26 03:37:52;;;;;;;1.58;1.48;;;;;;;;;;5033595;28;20033;-62
2022/10/26 03:40:17;;;;;;;2.20;1.45;;;;;;;;;;5065832;28;20022;-71
2022/10/26 03:42:42;;;;;;;1.77;1.67;;;;;;;;;;5033766;28;20030;-67
2022/10/26 03:45:09;;;;;;;1.58;1.48;;;;;;;;;;5033779;28;20409;-72
2022/10/26 03:47:41;;;;;;;1.67;1.50;;;;;;;;;;5033455;28;20039;-71
2022/10/26 03:50:07;;;;;;;1.45;1.30;;;;;;;;;;5033434;28;20489;-71
2022/10/26 03:52:33;;;;;;;1.60;1.50;;;;;;;;;;5033099;28;20045;-61
2022/10/26 03:54:58;;;;;;;1.65;1.50;;;;;;;;;;5033585;28;20030;-68
2022/10/26 03:57:23;;;;;;;1.65;1.50;;;;;;;;;;5032497;28;20432;-61
2022/10/26 03:59:49;;;;;;;1.40;1.30;;;;;;;;;;5033399;28;20029;-71
2022/10/26 04:02:14;;;;;;;2.17;1.63;;;;;;;;;;5031879;28;20420;-61
2022/10/26 04:04:40;;;;;;;1.95;1.60;;;;;;;;;;5033405;28;20029;-70
2022/10/26 04:07:05;;;;;;;1.90;1.60;;;;;;;;;;5033323;28;20051;-63
2022/10/26 04:09:31;;;;;;;2.38;1.70;;;;;;;;;;5033322;28;20029;-70
2022/10/26 04:11:56;;;;;;;1.77;1.40;;;;;;;;;;5032977;28;20056;-62
2022/10/26 04:14:22;;;;;;;1.88;1.67;;;;;;;;;;5032936;28;20076;-70
2022/10/26 04:16:47;;;;;;;1.52;1.40;;;;;;;;;;5033136;28;20032;-70
2022/10/26 04:19:13;;;;;;;3.50;1.85;;;;;;;;;;5032784;28;20420;-70
2022/10/26 04:21:38;;;;;;;2.53;1.60;;;;;;;;;;5032813;28;20061;-63
2022/10/26 04:24:04;;;;;;;1.42;1.33;;;;;;;;;;5033097;28;20108;-67
2022/10/26 04:26:29;;;;;;;2.00;1.80;;;;;;;;;;5033024;28;20492;-66
2022/10/26 04:28:55;;;;;;;1.92;1.55;;;;;;;;;;5032791;28;20406;-68
2022/10/26 04:31:20;;;;;;;2.35;1.48;;;;;;;;;;5064787;28;20072;-65
2022/10/26 04:33:46;;;;;;;2.30;1.58;;;;;;;;;;5032555;28;20444;-71
2022/10/26 04:36:11;;;;;;;2.20;1.73;;;;;;;;;;5032873;28;20030;-66
2022/10/26 04:38:37;;;;;;;1.55;1.45;;;;;;;;;;5032488;28;20473;-60
2022/10/26 04:41:02;;;;;;;1.60;1.50;;;;;;;;;;5032521;28;20025;-64
2022/10/26 04:43:28;;;;;;;1.60;1.50;;;;;;;;;;5031243;28;20060;-67
2022/10/26 04:45:55;;;;;;;1.55;1.45;;;;;;;;;;5032381;28;20021;-67
2022/10/26 04:48:20;;;;;;;1.73;1.40;;;;;;;;;;5032489;28;20100;-69
2022/10/26 04:50:46;;;;;;;1.92;1.65;;;;;;;;;;5032566;28;20060;-65
2022/10/26 04:53:11;;;;;;;1.40;1.30;;;;;;;;;;5030983;28;20100;-65
2022/10/26 04:55:37;;;;;;;2.00;1.50;;;;;;;;;;5032758;28;20037;-60
2022/10/26 04:58:03;;;;;;;1.50;1.40;;;;;;;;;;5032415;28;20021;-71
2022/10/26 05:00:31;;;;;;;1.83;1.60;;;;;;;;;;5032305;28;20079;-68
2022/10/26 05:03:01;;;;;;;2.55;1.50;;;;;;;;;;5032604;28;20030;-66
2022/10/26 05:05:27;;;;;;;1.63;1.30;;;;;;;;;;5032525;28;20025;-70
2022/10/26 05:07:56;;;;;;;2.10;1.38;;;;;;;;;;5032928;28;20039;-67
2022/10/26 05:10:22;;;;;;;1.60;1.38;;;;;;;;;;5036680;28;20025;-67
2022/10/26 05:12:51;;;;;;;2.05;1.30;;;;;;;;;;5036264;28;20075;-66
2022/10/26 05:15:17;;;;;;;1.60;1.50;;;;;;;;;;5051555;28;20044;-68
2022/10/26 05:17:43;;;;;;;1.40;1.30;;;;;;;;;;5036157;28;20091;-67
2022/10/26 05:20:12;;;;;;;1.40;1.30;;;;;;;;;;5036138;28;20421;-61
2022/10/26 05:22:38;;;;;;;1.63;1.42;;;;;;;;;;5036019;28;20125;-60
2022/10/26 05:25:04;;;;;;;1.80;1.52;;;;;;;;;;5036317;28;20052;-64
2022/10/26 05:27:29;;;;;;;1.40;1.30;;;;;;;;;;5035989;28;20199;-60
2022/10/26 05:29:55;;;;;;;1.40;1.30;;;;;;;;;;5035944;28;20023;-62
2022/10/26 05:32:20;;;;;;;1.42;1.33;;;;;;;;;;5035955;28;20071;-69
2022/10/26 05:34:46;;;;;;;1.33;1.20;;;;;;;;;;5036208;28;20056;-62
2022/10/26 05:37:12;;;;;;;1.48;1.38;;;;;;;;;;5068300;28;20102;-67
2022/10/26 05:39:37;;;;;;;1.50;1.40;;;;;;;;;;5035888;28;20473;-60
2022/10/26 05:42:03;;;;;;;1.98;1.48;;;;;;;;;;5035757;28;20034;-65
2022/10/26 05:44:28;;;;;;;2.22;1.30;;;;;;;;;;5035617;28;20029;-62
2022/10/26 05:46:54;;;;;;;1.58;1.48;;;;;;;;;;5035974;28;20369;-70
2022/10/26 05:49:19;;;;;;;1.60;1.50;;;;;;;;;;5035583;28;20033;-62
2022/10/26 05:51:45;;;;;;;1.58;1.48;;;;;;;;;;5035250;28;20404;-60
2022/10/26 05:54:10;;;;;;;1.67;1.58;;;;;;;;;;5035549;28;20084;-65
2022/10/26 05:56:38;;;;;;;2.85;1.80;;;;;;;;;;5035399;28;20079;-67
2022/10/26 05:59:12;;;;;;;2.03;1.50;;;;;;;;;;5035386;28;20022;-72
2022/10/26 06:02:03;;;;;;;1.50;1.40;;;;;;;;;;5033648;28;20025;-71
2022/10/26 06:04:48;;;;;;;1.50;1.40;;;;;;;;;;5035457;28;20057;-70
2022/10/26 06:07:20;;;;;;;1.85;1.60;;;;;;;;;;5035288;28;20014;-65
2022/10/26 06:09:46;;;;;;;1.67;1.58;;;;;;;;;;5035198;28;20030;-63
2022/10/26 06:12:13;;;;;;;2.80;1.77;;;;;;;;;;5035515;28;20044;-61
2022/10/26 06:14:39;;;;;;;1.70;1.60;;;;;;;;;;5035130;28;20625;-60
2022/10/26 06:17:11;;;;;;;2.92;1.58;;;;;;;;;;5035212;28;20465;-65
2022/10/26 06:19:45;;;;;;;1.80;1.60;;;;;;;;;;5033054;28;20497;-68
2022/10/26 06:22:17;;;;;;;2.35;1.77;;;;;;;;;;5035063;28;20037;-65
2022/10/26 06:25:02;;;;;;;1.70;1.60;;;;;;;;;;5034957;28;20017;-63
2022/10/26 06:27:47;;;;;;;1.90;1.67;;;;;;;;;;5063069;28;20116;-67
2022/10/26 06:30:13;;;;;;;1.70;1.50;;;;;;;;;;5035023;28;20026;-65
2022/10/26 06:32:42;;;;;;;2.38;1.92;;;;;;;;;;5033579;28;20032;-67
2022/10/26 06:35:14;;;;;;;1.65;1.55;;;;;;;;;;5034892;28;20492;-70
2022/10/26 06:37:43;;;;;;;1.60;1.50;;;;;;;;;;5034824;28;20026;-64
2022/10/26 06:40:14;;;;;;;1.73;1.63;;;;;;;;;;5033519;28;20029;-61
2022/10/26 06:42:40;;;;;;;1.70;1.60;;;;;;;;;;5034672;28;20033;-69
2022/10/26 06:45:09;;;;;;;1.70;1.50;;;;;;;;;;5034834;28;20099;-65
2022/10/26 06:47:47;;;;;;;1.33;1.23;;;;;;;;;;5034575;28;20029;-69
2022/10/26 06:50:28;;;;;;;2.17;1.60;;;;;;;;;;5065229;28;20484;-71
2022/10/26 06:53:02;;;;;;;1.88;1.58;;;;;;;;;;5034275;28;20034;-71
2022/10/26 06:55:34;;;;;;;1.73;1.63;;;;;;;;;;5034563;28;20034;-70
2022/10/26 06:58:01;;;;;;;1.60;1.50;;;;;;;;;;5049254;28;20482;-71
2022/10/26 07:00:27;;;;;;;1.55;1.45;;;;;;;;;;5066563;28;20382;-71
2022/10/26 07:02:52;;;;;;;1.52;1.42;;;;;;;;;;5034508;28;20064;-71
2022/10/26 07:05:18;;;;;;;1.52;1.40;;;;;;;;;;5034352;28;20088;-67
2022/10/26 07:07:45;;;;;;;1.85;1.73;;;;;;;;;;5032962;28;20029;-70
2022/10/26 07:10:12;;;;;;;1.48;1.30;;;;;;;;;;5034384;28;20029;-60
2022/10/26 07:12:37;;;;;;;2.10;1.90;;;;;;;;;;5034219;28;20051;-70
2022/10/26 07:15:04;;;;;;;1.50;1.40;;;;;;;;;;5034332;28;20025;-63
2022/10/26 07:17:30;;;;;;;1.65;1.55;;;;;;;;;;5034003;28;20029;-68
2022/10/26 07:19:56;;;;;;;3.42;1.60;;;;;;;;;;5034135;28;20026;-70
2022/10/26 07:22:22;;;;;;;1.77;1.65;;;;;;;;;;5033868;28;20029;-69
2022/10/26 07:24:51;;;;;;;1.73;1.55;;;;;;;;;;5031310;28;20047;-60
2022/10/26 07:27:22;;;;;;;1.55;1.40;;;;;;;;;;5029752;28;20124;-64
2022/10/26 07:29:48;;;;;;;1.50;1.38;;;;;;;;;;5031597;28;20017;-60
2022/10/26 07:32:13;;;;;;;1.50;1.40;;;;;;;;;;5029891;28;20028;-60
2022/10/26 07:34:39;;;;;;;2.40;1.52;;;;;;;;;;5030235;28;20021;-71
2022/10/26 07:37:05;;;;;;;1.98;1.60;;;;;;;;;;5029013;28;20100;-64
2022/10/26 07:39:31;;;;;;;1.60;1.50;;;;;;;;;;5034680;28;20474;-64
2022/10/26 07:41:57;;;;;;;1.85;1.40;;;;;;;;;;5040444;28;20042;-64
2022/10/26 07:44:23;;;;;;;1.80;1.48;;;;;;;;;;5041226;28;20032;-64
2022/10/26 07:46:48;;;;;;;1.50;1.40;;;;;;;;;;5033533;28;20033;-69
2022/10/26 07:49:14;;;;;;;1.30;1.20;;;;;;;;;;5032642;28;20099;-60
2022/10/26 07:51:39;;;;;;;1.73;1.63;;;;;;;;;;5027964;28;20055;-60
2022/10/26 07:54:05;;;;;;;1.45;1.35;;;;;;;;;;5034185;28;20088;-62
2022/10/26 07:56:30;;;;;;;1.63;1.48;;;;;;;;;;5034355;28;20175;-68
2022/10/26 07:58:56;;;;;;;1.60;1.50;;;;;;;;;;5033998;28;20017;-63
2022/10/26 08:01:22;;;;;;;1.73;1.52;;;;;;;;;;5035004;28;20029;-60
2022/10/26 08:03:51;;;;;;;1.73;1.63;;;;;;;;;;5034240;28;20500;-66
2022/10/26 08:06:17;;;;;;;1.85;1.50;;;;;;;;;;5032322;28;20072;-64
2022/10/26 08:08:42;;;;;;;1.40;1.30;;;;;;;;;;5032416;28;20052;-62
2022/10/26 08:11:08;;;;;;;1.65;1.55;;;;;;;;;;5033540;28;20065;-61
2022/10/26 08:13:34;;;;;;;2.72;1.58;;;;;;;;;;5038160;28;20033;-63
2022/10/26 08:16:02;;;;;;;1.60;1.48;;;;;;;;;;5029363;28;20029;-61
2022/10/26 08:18:28;;;;;;;2.92;1.60;;;;;;;;;;5036294;28;20136;-63
2022/10/26 08:20:54;;;;;;;1.60;1.50;;;;;;;;;;5040883;28;20107;-66
2022/10/26 08:23:21;;;;;;;2.60;1.50;;;;;;;;;;5041940;28;20036;-64
2022/10/26 08:25:48;;;;;;;2.30;1.75;;;;;;;;;;5036829;28;20029;-68
2022/10/26 08:28:13;;;;;;;1.90;1.60;;;;;;;;;;5041780;28;20109;-64
2022/10/26 08:30:39;;;;;;;1.40;1.30;;;;;;;;;;5043787;28;20104;-64
2022/10/26 08:33:06;;;;;;;1.67;1.58;;;;;;;;;;5051389;28;20031;-62
2022/10/26 08:35:32;;;;;;;1.55;1.40;;;;;;;;;;5046788;28;20032;-67
2022/10/26 08:37:59;;;;;;;2.13;1.20;;;;;;;;;;5025880;28;20103;-67
2022/10/26 08:40:29;;;;;;;1.67;1.48;;;;;;;;;;5011778;28;20030;-67
2022/10/26 08:43:01;;;;;;;2.45;1.40;;;;;;;;;;5010056;28;20449;-63
2022/10/26 08:45:39;;;;;;;2.53;1.30;;;;;;;;;;5017913;28;20038;-68
2022/10/26 08:48:14;;;;;;;2.70;1.48;;;;;;;;;;5029462;28;20057;-69
2022/10/26 08:50:49;;;;;;;1.67;1.50;;;;;;;;;;5055413;28;20030;-65
2022/10/26 08:53:33;;;;;;;3.42;1.85;;;;;;;;;;5019478;28;20824;-72
2022/10/26 08:56:05;;;;;;;1.90;1.70;;;;;;;;;;5028748;28;20046;-65
2022/10/26 08:59:06;;;;;;;2.00;1.70;;;;;;;;;;5028163;28;20025;-67
2022/10/26 09:01:33;;;;;;;2.53;1.63;;;;;;;;;;5030382;28;20037;-63
2022/10/26 09:04:01;;;;;;;1.95;1.80;;;;;;;;;;5028191;28;20036;-66
2022/10/26 09:06:40;;;;;;;2.13;1.80;;;;;;;;;;5030554;28;20033;-64
2022/10/26 09:09:16;;;;;;;1.80;1.60;;;;;;;;;;5030483;28;20025;-63
2022/10/26 09:11:59;;;;;;;2.63;1.83;;;;;;;;;;5027561;28;20053;-62
2022/10/26 09:14:39;;;;;;;3.83;1.85;;;;;;;;;;5029373;28;20079;-62
2022/10/26 09:17:22;;;;;;;6.97;2.22;;;;;;;;;;5030504;28;20026;-61
2022/10/26 09:20:29;;;;;;;2.10;1.90;;;;;;;;;;5030552;28;20040;-61
2022/10/26 09:23:26;;;;;;;3.80;2.13;;;;;;;;;;5017474;28;20052;-62
2022/10/26 09:25:58;;;;;;;2.75;1.92;;;;;;;;;;5030847;28;20116;-63
2022/10/26 09:28:25;;;;;;;2.42;1.85;;;;;;;;;;5012191;28;20026;-64
2022/10/26 09:30:51;;;;;;;2.53;2.00;;;;;;;;;;5010425;28;20096;-63
2022/10/26 09:33:21;;;;;;;2.13;1.92;;;;;;;;;;5010557;28;20514;-66
2022/10/26 09:35:48;;;;;;;2.22;2.03;;;;;;;;;;5020581;28;20037;-61
2022/10/26 09:38:16;;;;;;;2.33;2.10;;;;;;;;;;5029866;28;20507;-63
2022/10/26 09:41:11;;;;;;;2.10;1.90;;;;;;;;;;5030242;28;20026;-64
2022/10/26 09:44:02;;;;;;;2.58;2.25;;;;;;;;;;5020663;28;20393;-65
2022/10/26 09:46:42;;;;;;;4.47;2.45;;;;;;;;;;5029211;28;20497;-67
2022/10/26 09:49:11;;;;;;;2.10;1.90;;;;;;;;;;5029990;28;20038;-64
2022/10/26 09:51:38;;;;;;;2.47;1.92;;;;;;;;;;5028368;28;20493;-63
2022/10/26 09:54:16;;;;;;;3.90;1.90;;;;;;;;;;5028865;28;20033;-66
2022/10/26 09:56:45;;;;;;;7.10;1.95;;;;;;;;;;5033772;28;20021;-65
2022/10/26 09:59:12;;;;;;;2.13;1.90;;;;;;;;;;5032483;28;20025;-62
2022/10/26 10:01:37;;;;;;;3.83;2.10;;;;;;;;;;5049630;28;20112;-68
2022/10/26 10:04:19;;;;;;;3.00;2.15;;;;;;;;;;5054091;28;20171;-67
2022/10/26 10:06:47;;;;;;;1.90;1.70;;;;;;;;;;5013898;28;20026;-63
2022/10/26 10:09:23;;;;;;;3.55;1.98;;;;;;;;;;5014210;28;20034;-62
2022/10/26 10:11:57;;;;;;;3.00;2.10;;;;;;;;;;5013909;28;20124;-62
2022/10/26 10:14:25;;;;;;;2.30;1.90;;;;;;;;;;5013754;28;20057;-64
2022/10/26 10:17:03;;;;;;;2.72;2.08;;;;;;;;;;5030154;28;20025;-69
2022/10/26 10:19:33;;;;;;;3.13;2.28;;;;;;;;;;5053544;28;20039;-61
2022/10/26 10:22:15;;;;;;;3.80;2.10;;;;;;;;;;5049531;28;20334;-63
2022/10/26 10:24:51;;;;;;;2.95;2.10;;;;;;;;;;5039949;28;20523;-69
2022/10/26 10:27:17;;;;;;;2.22;2.03;;;;;;;;;;5043895;28;20477;-68
2022/10/26 10:29:50;;;;;;;3.00;2.20;;;;;;;;;;5024625;28;20057;-63
2022/10/26 10:32:19;;;;;;;2.60;2.00;;;;;;;;;;5043510;28;20514;-72
2022/10/26 10:34:46;;;;;;;3.60;2.00;;;;;;;;;;5042625;28;20493;-67
2022/10/26 10:37:33;;;;;;;5.72;2.10;;;;;;;;;;5041816;28;20021;-62
2022/10/26 10:40:09;;;;;;;2.88;1.83;;;;;;;;;;5042004;28;20036;-67
2022/10/26 10:42:39;;;;;;;4.20;2.17;;;;;;;;;;5052017;28;20028;-69
2022/10/26 10:45:06;;;;;;;5.78;1.90;;;;;;;;;;5032268;28;20034;-68
2022/10/26 10:47:36;;;;;;;2.35;1.90;;;;;;;;;;5020076;28;20080;-64
2022/10/26 10:50:28;;;;;;;3.40;1.58;;;;;;;;;;5052825;28;20028;-66
2022/10/26 10:53:32;;;;;;;2.47;1.85;;;;;;;;;;5034075;28;20428;-65
2022/10/26 10:56:05;;;;;;;1.95;1.85;;;;;;;;;;5023549;28;20038;-74
2022/10/26 10:59:00;;;;;;;2.33;2.10;;;;;;;;;;5013073;28;20571;-68
2022/10/26 11:01:35;;;;;;;2.53;2.22;;;;;;;;;;5013131;28;20029;-65
2022/10/26 11:04:36;;;;;;;2.05;1.70;;;;;;;;;;5012765;28;20033;-67
2022/10/26 11:07:05;;;;;;;2.30;2.00;;;;;;;;;;5012420;28;20042;-62
2022/10/26 11:09:34;;;;;;;2.50;1.98;;;;;;;;;;5013059;28;20087;-64
2022/10/26 11:12:15;;;;;;;4.00;1.93;;;;;;;;;;5027360;28;20025;-64
2022/10/26 11:14:49;;;;;;;5.55;2.00;;;;;;;;;;5012510;28;20053;-64
2022/10/26 11:17:21;;;;;;;1.90;1.70;;;;;;;;;;5027788;28;20028;-66
2022/10/26 11:19:57;;;;;;;6.22;1.75;;;;;;;;;;5010739;28;20022;-65
2022/10/26 11:22:28;;;;;;;6.15;1.90;;;;;;;;;;5010486;28;20026;-63
2022/10/26 11:25:04;;;;;;;2.95;1.83;;;;;;;;;;5010650;28;20034;-62
2022/10/26 11:27:52;;;;;;;2.67;1.67;;;;;;;;;;5012491;28;20025;-62
2022/10/26 11:30:26;;;;;;;3.58;1.80;;;;;;;;;;5012632;28;20425;-63
2022/10/26 11:33:23;;;;;;;3.55;1.60;;;;;;;;;;5012639;28;20058;-65
2022/10/26 11:35:56;;;;;;;3.65;2.03;;;;;;;;;;5012519;28;20429;-67
2022/10/26 11:38:28;;;;;;;2.40;1.88;;;;;;;;;;5012517;28;20395;-65
2022/10/26 11:41:35;;;;;;;2.13;1.90;;;;;;;;;;5012179;28;20080;-62
2022/10/26 11:44:04;;;;;;;4.63;1.80;;;;;;;;;;5011866;28;20057;-69
2022/10/26 11:46:42;;;;;;;2.42;1.90;;;;;;;;;;5012046;28;20069;-64
2022/10/26 11:49:14;;;;;;;1.60;1.50;;;;;;;;;;5012384;28;20438;-70
2022/10/26 11:51:42;;;;;;;2.00;1.60;;;;;;;;;;5012101;28;20441;-68
2022/10/26 11:54:14;;;;;;;4.95;1.80;;;;;;;;;;5012300;28;20030;-70
2022/10/26 11:56:46;;;;;;;4.47;1.80;;;;;;;;;;5011840;28;20088;-65
2022/10/26 11:59:19;;;;;;;1.50;1.30;;;;;;;;;;5014546;28;20477;-72
2022/10/26 12:02:01;;;;;;;3.90;1.65;;;;;;;;;;5014417;28;20038;-64
2022/10/26 12:04:30;;;;;;;5.03;1.60;;;;;;;;;;5025664;28;20021;-71
2022/10/26 12:07:00;;;;;;;3.17;1.58;;;;;;;;;;5030862;28;20030;-62
2022/10/26 12:09:27;;;;;;;;;;;;;;;;;;5032154;28;20392;-62
2022/10/26 12:12:20;;;;;;;2.05;1.50;;;;;;;;;;5030229;28;20012;-61
2022/10/26 12:14:58;;;;;;;1.67;1.40;;;;;;;;;;5031272;28;20044;-64
2022/10/26 12:18:14;;;;;;;2.22;1.35;;;;;;;;;;5029715;28;20156;-69
2022/10/26 12:21:01;;;;;;;2.22;1.25;;;;;;;;;;5018846;28;20489;-70
2022/10/26 12:23:28;;;;;;;1.20;1.10;;;;;;;;;;5031440;28;20029;-72
2022/10/26 12:26:21;;;;;;;2.03;1.40;;;;;;;;;;5031444;28;20036;-71
2022/10/26 12:28:48;;;;;;;1.80;1.42;;;;;;;;;;5031525;28;20034;-69
2022/10/26 12:31:35;;;;;;;1.38;1.05;;;;;;;;;;5031165;28;20025;-66
2022/10/26 12:34:10;;;;;;;3.80;1.30;;;;;;;;;;5031044;28;20037;-72
2022/10/26 12:36:53;;;;;;;1.95;1.20;;;;;;;;;;5031138;28;20034;-66
2022/10/26 12:39:34;;;;;;;1.10;1.00;;;;;;;;;;5029722;28;20033;-71
2022/10/26 12:42:09;;;;;;;3.63;1.10;;;;;;;;;;5031345;28;20500;-71
2022/10/26 12:44:59;;;;;;;1.23;1.10;;;;;;;;;;5030897;28;20041;-70
2022/10/26 12:47:27;;;;;;;1.52;1.10;;;;;;;;;;5031055;28;20029;-69
2022/10/26 12:50:22;;;;;;;1.88;1.10;;;;;;;;;;5031183;28;20034;-71
2022/10/26 12:53:07;;;;;;;1.80;1.17;;;;;;;;;;5026456;28;20029;-62
2022/10/26 12:55:44;;;;;;;1.55;1.00;;;;;;;;;;5030814;28;20052;-63
2022/10/26 12:58:54;;;;;;;6.38;1.08;;;;;;;;;;5030931;28;20029;-69
2022/10/26 13:01:32;;;;;;;;;;;;;;;;;;5021814;28;20154;-68
2022/10/26 13:04:12;;;;;;;1.58;1.00;;;;;;;;;;5030505;28;20293;-66
2022/10/26 13:06:49;;;;;;;2.38;1.17;;;;;;;;;;5029196;28;20473;-71
2022/10/26 13:09:26;;;;;;;3.15;1.30;;;;;;;;;;5030953;28;20064;-72
2022/10/26 13:11:54;;;;;;;1.77;1.20;;;;;;;;;;5029289;28;20025;-71
2022/10/26 13:14:27;;;;;;;2.97;1.10;;;;;;;;;;5029186;28;20034;-68
2022/10/26 13:16:53;;;;;;;10.07;2.40;;;;;;;;;;5030783;28;20334;-64
2022/10/26 13:19:24;;;;;;;7.05;2.55;;;;;;;;;;5030787;28;20537;-70
2022/10/26 13:21:50;;;;;;;18.08;3.10;;;;;;;;;;5030481;28;20025;-71
2022/10/26 13:24:25;;;;;;;8.35;2.88;;;;;;;;;;5028098;28;20037;-64
2022/10/26 13:27:06;;;;;;;6.50;2.63;;;;;;;;;;5029839;28;20021;-71
2022/10/26 13:30:04;;;;;;;4.68;1.55;;;;;;;;;;5032121;28;20036;-71
2022/10/26 13:32:39;;;;;;;8.82;1.58;;;;;;;;;;5034474;28;20026;-70
2022/10/26 13:35:11;;;;;;;4.60;1.80;;;;;;;;;;5034309;28;20112;-63
2022/10/26 13:37:40;;;;;;;2.75;1.40;;;;;;;;;;5034591;28;20073;-70
2022/10/26 13:40:06;;;;;;;5.63;1.48;;;;;;;;;;5034098;28;20056;-63
2022/10/26 13:42:54;;;;;;;3.78;1.50;;;;;;;;;;5034175;28;20033;-62
2022/10/26 13:45:33;;;;;;;5.97;1.50;;;;;;;;;;5034348;28;20033;-69
2022/10/26 13:48:09;;;;;;;2.22;1.30;;;;;;;;;;5034133;28;20427;-63
2022/10/26 13:50:48;;;;;;;5.15;1.70;;;;;;;;;;5034055;28;20045;-72
2022/10/26 13:53:45;;;;;;;2.45;1.40;;;;;;;;;;5033714;28;20042;-62
2022/10/26 13:56:23;;;;;;;2.58;1.30;;;;;;;;;;5034185;28;20067;-62
2022/10/26 13:59:08;;;;;;;3.97;1.40;;;;;;;;;;5034053;28;20029;-70
2022/10/26 14:01:34;;;;;;;2.88;1.27;;;;;;;;;;5033874;28;20544;-69
2022/10/26 14:04:13;;;;;;;6.07;1.23;;;;;;;;;;5033842;28;20129;-63
2022/10/26 14:06:41;;;;;;;2.50;1.40;;;;;;;;;;5030601;28;20072;-66
2022/10/26 14:09:13;;;;;;;2.92;1.50;;;;;;;;;;5014363;28;20629;-62
2022/10/26 14:11:46;;;;;;;3.55;1.20;;;;;;;;;;5014143;28;20370;-64
2022/10/26 14:14:29;;;;;;;1.40;1.10;;;;;;;;;;5045761;28;20037;-68
2022/10/26 14:16:55;;;;;;;4.00;1.20;;;;;;;;;;5014022;28;20066;-68
2022/10/26 14:19:23;;;;;;;3.85;1.45;;;;;;;;;;5013824;28;20029;-70
2022/10/26 14:21:52;;;;;;;2.90;1.20;;;;;;;;;;5025109;28;20061;-63
2022/10/26 14:24:23;;;;;;;2.88;1.23;;;;;;;;;;5031939;28;20041;-63
2022/10/26 14:26:49;;;;;;;3.22;1.10;;;;;;;;;;5031942;28;20044;-60
2022/10/26 14:29:20;;;;;;;4.03;1.13;;;;;;;;;;5033163;28;20687;-62
2022/10/26 14:31:50;;;;;;;2.50;1.10;;;;;;;;;;5021161;28;20413;-61
2022/10/26 14:34:17;;;;;;;1.77;1.20;;;;;;;;;;5013785;28;20029;-64
2022/10/26 14:37:02;;;;;;;1.75;1.13;;;;;;;;;;5023734;28;20025;-61
2022/10/26 14:39:33;;;;;;;5.53;1.20;;;;;;;;;;5033118;28;20699;-60
2022/10/26 14:42:02;;;;;;;4.55;1.00;;;;;;;;;;5032880;28;20029;-65
2022/10/26 14:44:28;;;;;;;1.95;1.20;;;;;;;;;;5023879;28;20038;-64
2022/10/26 14:46:54;;;;;;;5.55;1.55;;;;;;;;;;5013841;28;20117;-66
2022/10/26 14:49:26;;;;;;;2.40;1.17;;;;;;;;;;5013179;28;20133;-61
2022/10/26 14:51:56;;;;;;;3.58;1.20;;;;;;;;;;5013402;28;20072;-67
2022/10/26 14:54:27;;;;;;;2.90;1.20;;;;;;;;;;5021278;28;20037;-68
2022/10/26 14:56:54;;;;;;;4.20;1.27;;;;;;;;;;5014503;28;20068;-62
2022/10/26 14:59:28;;;;;;;1.70;1.10;;;;;;;;;;5013071;28;20478;-61
2022/10/26 15:02:20;;;;;;;3.67;1.00;;;;;;;;;;5012928;28;20068;-62
2022/10/26 15:05:16;;;;;;;8.20;1.50;;;;;;;;;;5012885;28;20072;-60
2022/10/26 15:07:43;;;;;;;1.35;1.00;;;;;;;;;;5021446;28;20029;-61
2022/10/26 15:10:36;;;;;;;2.00;1.20;;;;;;;;;;5012557;28;20032;-61
2022/10/26 15:13:23;;;;;;;2.63;1.10;;;;;;;;;;5032016;28;20061;-65
2022/10/26 15:15:50;;;;;;;4.50;1.35;;;;;;;;;;5032535;28;20413;-59
2022/10/26 15:18:23;;;;;;;2.97;1.33;;;;;;;;;;5031232;28;20462;-59